createdAt,value
2023-04-02T00:00:10.675Z,93231.97
2023-04-02T00:03:01.662Z,93231.25
2023-04-02T00:05:31.724Z,93230.25
2023-04-02T00:08:10.483Z,93232.47
2023-04-02T00:10:48.300Z,93232.91
2023-04-02T00:13:14.898Z,93237.72
2023-04-02T00:15:44.382Z,93233.34
2023-04-02T00:18:18.192Z,93239.28
2023-04-02T00:21:00.710Z,93237.88
2023-04-02T00:23:28.548Z,93228.91
2023-04-02T00:25:55.338Z,93228.50
2023-04-02T00:28:23.753Z,93239.41
2023-04-02T00:30:55.855Z,93234.06
2023-04-02T00:33:24.157Z,93244.16
2023-04-02T00:35:51.593Z,93237.63
2023-04-02T00:38:44.269Z,93236.41
2023-04-02T00:41:16.640Z,93234.25
2023-04-02T00:43:44.879Z,93208.34
2023-04-02T00:46:15.513Z,93232.47
2023-04-02T00:48:59.741Z,93235.25
2023-04-02T00:51:31.870Z,93237.66
2023-04-02T00:54:01.216Z,93235.44
2023-04-02T00:56:45.950Z,93234.44
2023-04-02T00:59:36.954Z,93245.22
2023-04-02T01:02:13.719Z,93237.66
2023-04-02T01:04:41.545Z,93230.72
2023-04-02T01:07:10.704Z,93231.72
2023-04-02T01:09:56.377Z,93226.78
2023-04-02T01:12:45.176Z,93233.88
2023-04-02T01:15:26.469Z,93233.50
2023-04-02T01:18:18.372Z,93225.81
2023-04-02T01:20:48.128Z,93232.91
2023-04-02T01:23:18.493Z,93224.59
2023-04-02T01:26:17.215Z,93222.41
2023-04-02T01:29:16.103Z,93234.22
2023-04-02T01:31:44.882Z,93238.38
2023-04-02T01:34:15.017Z,93231.44
2023-04-02T01:37:07.165Z,93222.81
2023-04-02T01:39:56.776Z,93224.13
2023-04-02T01:42:27.155Z,93238.94
2023-04-02T01:45:00.849Z,93239.50
2023-04-02T01:47:29.121Z,93230.44
2023-04-02T01:50:23.114Z,93236.13
2023-04-02T01:52:56.243Z,93237.78
2023-04-02T01:55:38.345Z,93237.00
2023-04-02T01:58:05.863Z,93243.78
2023-04-02T02:00:36.279Z,93240.63
2023-04-02T02:03:04.200Z,93244.06
2023-04-02T02:05:31.121Z,93251.78
2023-04-02T02:07:58.549Z,93244.63
2023-04-02T02:10:34.072Z,93252.25
2023-04-02T02:13:01.123Z,93248.09
2023-04-02T02:15:28.079Z,93256.47
2023-04-02T02:17:59.787Z,93257.50
2023-04-02T02:20:28.507Z,93245.47
2023-04-02T02:22:56.590Z,93257.38
2023-04-02T02:25:27.336Z,93255.94
2023-04-02T02:28:03.274Z,93257.50
2023-04-02T02:30:31.088Z,93260.31
2023-04-02T02:33:18.088Z,93244.63
2023-04-02T02:35:51.009Z,93248.16
2023-04-02T02:38:29.877Z,93254.09
2023-04-02T02:41:01.119Z,93257.03
2023-04-02T02:43:28.358Z,93255.25
2023-04-02T02:45:56.203Z,93252.09
2023-04-02T02:48:25.499Z,93254.50
2023-04-02T02:50:53.397Z,93258.25
2023-04-02T02:53:22.903Z,93242.19
2023-04-02T02:55:53.286Z,93254.38
2023-04-02T02:58:26.564Z,93258.94
2023-04-02T03:00:54.234Z,93250.09
2023-04-02T03:03:24.161Z,93257.03
2023-04-02T03:05:57.765Z,93259.69
2023-04-02T03:08:32.629Z,93263.25
2023-04-02T03:11:06.276Z,93251.59
2023-04-02T03:13:35.750Z,93265.03
2023-04-02T03:16:22.864Z,93265.75
2023-04-02T03:18:59.402Z,93257.03
2023-04-02T03:21:40.216Z,93261.19
2023-04-02T03:24:16.016Z,93271.72
2023-04-02T03:26:49.132Z,93263.66
2023-04-02T03:29:19.991Z,93266.81
2023-04-02T03:32:00.063Z,93274.53
2023-04-02T03:34:37.651Z,93279.97
2023-04-02T03:37:26.427Z,93274.44
2023-04-02T03:39:58.592Z,93281.56
2023-04-02T03:42:27.482Z,93288.88
2023-04-02T03:44:58.622Z,93278.22
2023-04-02T03:47:31.280Z,93285.97
2023-04-02T03:50:23.109Z,93287.72
2023-04-02T03:52:50.129Z,93296.81
2023-04-02T03:55:22.902Z,93290.28
2023-04-02T03:58:16.205Z,93290.06
2023-04-02T04:00:49.653Z,93299.00
2023-04-02T04:03:27.586Z,93300.75
2023-04-02T04:06:01.537Z,93311.38
2023-04-02T04:08:43.799Z,93304.22
2023-04-02T04:11:15.412Z,93310.59
2023-04-02T04:14:19.996Z,93313.38
2023-04-02T04:17:05.737Z,93316.22
2023-04-02T04:19:49.711Z,93320.31
2023-04-02T04:22:30.335Z,93327.25
2023-04-02T04:25:06.407Z,93321.94
2023-04-02T04:28:09.170Z,93327.88
2023-04-02T04:31:18.099Z,93333.81
2023-04-02T04:33:50.524Z,93339.72
2023-04-02T04:36:30.187Z,93341.50
2023-04-02T04:39:06.144Z,93346.44
2023-04-02T04:41:36.449Z,93348.81
2023-04-02T04:44:03.027Z,93357.50
2023-04-02T04:46:41.910Z,93350.81
2023-04-02T04:49:18.496Z,93356.34
2023-04-02T04:52:08.333Z,93361.13
2023-04-02T04:54:37.960Z,93364.13
2023-04-02T04:57:06.126Z,93365.19
2023-04-02T04:59:39.768Z,93364.16
2023-04-02T05:02:17.556Z,93371.47
2023-04-02T05:04:49.321Z,93364.72
2023-04-02T05:07:28.955Z,93372.25
2023-04-02T05:10:03.979Z,93375.00
2023-04-02T05:12:44.303Z,93375.84
2023-04-02T05:15:14.806Z,93379.84
2023-04-02T05:18:08.228Z,93385.16
2023-04-02T05:20:40.766Z,93389.50
2023-04-02T05:23:13.229Z,93394.03
2023-04-02T05:25:59.922Z,93381.63
2023-04-02T05:28:34.364Z,93384.34
2023-04-02T05:31:12.319Z,93385.34
2023-04-02T05:33:39.842Z,93390.88
2023-04-02T05:36:13.089Z,93392.66
2023-04-02T05:38:45.489Z,93384.94
2023-04-02T05:41:36.825Z,93379.78
2023-04-02T05:44:08.112Z,93384.91
2023-04-02T05:46:46.200Z,93384.84
2023-04-02T05:49:41.714Z,93379.06
2023-04-02T05:52:14.028Z,93392.91
2023-04-02T05:54:47.822Z,93389.25
2023-04-02T05:57:17.632Z,93391.44
2023-04-02T05:59:49.266Z,93400.31
2023-04-02T06:02:21.958Z,93404.41
2023-04-02T06:04:54.628Z,93400.63
2023-04-02T06:07:24.197Z,93409.75
2023-04-02T06:09:54.530Z,93411.91
2023-04-02T06:12:39.620Z,93413.84
2023-04-02T06:15:10.162Z,93414.00
2023-04-02T06:17:47.569Z,93401.81
2023-04-02T06:20:19.329Z,93398.53
2023-04-02T06:22:49.521Z,93407.88
2023-04-02T06:25:37.008Z,93408.25
2023-04-02T06:28:06.412Z,93404.44
2023-04-02T06:30:38.732Z,93408.88
2023-04-02T06:33:05.766Z,93401.53
2023-04-02T06:35:34.939Z,93399.84
2023-04-02T06:38:04.604Z,93406.78
2023-04-02T06:40:59.123Z,93410.38
2023-04-02T06:43:33.695Z,93412.31
2023-04-02T06:46:11.473Z,93411.81
2023-04-02T06:48:39.614Z,93412.78
2023-04-02T06:51:14.635Z,93406.09
2023-04-02T06:53:47.190Z,93419.03
2023-04-02T06:56:46.360Z,93428.34
2023-04-02T06:59:14.383Z,93429.81
2023-04-02T07:01:49.119Z,93435.34
2023-04-02T07:04:16.771Z,93445.88
2023-04-02T07:06:43.737Z,93456.03
2023-04-02T07:09:10.540Z,93461.66
2023-04-02T07:11:37.269Z,93462.53
2023-04-02T07:14:04.037Z,93461.38
2023-04-02T07:16:32.769Z,93476.00
2023-04-02T07:19:00.035Z,93478.53
2023-04-02T07:21:27.668Z,93487.03
2023-04-02T07:23:55.083Z,93498.09
2023-04-02T07:26:25.532Z,93487.50
2023-04-02T07:28:52.465Z,93487.94
2023-04-02T07:31:21.905Z,93490.88
2023-04-02T07:33:48.730Z,93487.50
2023-04-02T07:36:17.501Z,93485.69
2023-04-02T07:38:44.572Z,93506.41
2023-04-02T07:41:12.143Z,93496.19
2023-04-02T07:43:39.648Z,93498.53
2023-04-02T07:46:07.708Z,93509.69
2023-04-02T07:48:34.529Z,93511.59
2023-04-02T07:51:03.360Z,93502.94
2023-04-02T07:53:40.224Z,93508.44
2023-04-02T07:56:07.361Z,93510.03
2023-04-02T07:58:34.456Z,93520.03
2023-04-02T08:01:01.890Z,93529.31
2023-04-02T08:03:29.668Z,93527.16
2023-04-02T08:05:58.715Z,93538.06
2023-04-02T08:08:25.997Z,93546.78
2023-04-02T08:10:52.766Z,93547.75
2023-04-02T08:13:19.680Z,93537.28
2023-04-02T08:15:46.502Z,93556.97
2023-04-02T08:18:13.225Z,93547.13
2023-04-02T08:20:40.071Z,93546.19
2023-04-02T08:23:17.235Z,93555.63
2023-04-02T08:25:46.777Z,93558.06
2023-04-02T08:28:13.782Z,93559.88
2023-04-02T08:30:41.358Z,93559.66
2023-04-02T08:33:08.098Z,93560.66
2023-04-02T08:35:35.230Z,93554.84
2023-04-02T08:38:02.180Z,93566.00
2023-04-02T08:40:35.671Z,93569.72
2023-04-02T08:43:28.985Z,93564.66
2023-04-02T08:46:19.605Z,93570.06
2023-04-02T08:48:51.263Z,93569.50
2023-04-02T08:51:27.088Z,93576.53
2023-04-02T08:53:56.939Z,93572.91
2023-04-02T08:56:28.189Z,93571.84
2023-04-02T08:58:58.246Z,93586.31
2023-04-02T09:01:54.642Z,93580.03
2023-04-02T09:04:22.860Z,93582.25
2023-04-02T09:06:51.600Z,93592.97
2023-04-02T09:09:18.766Z,93585.97
2023-04-02T09:11:51.900Z,93583.16
2023-04-02T09:14:32.084Z,93593.75
2023-04-02T09:17:03.411Z,93588.53
2023-04-02T09:19:40.521Z,93584.94
2023-04-02T09:22:12.158Z,93576.19
2023-04-02T09:24:38.772Z,93590.75
2023-04-02T09:27:17.580Z,93601.97
2023-04-02T09:29:45.982Z,93596.53
2023-04-02T09:32:39.554Z,93600.69
2023-04-02T09:35:27.242Z,93605.72
2023-04-02T09:38:12.766Z,93603.44
2023-04-02T09:41:07.617Z,93599.25
2023-04-02T09:43:36.951Z,93625.28
2023-04-02T09:46:18.410Z,93613.63
2023-04-02T09:48:58.295Z,93613.75
2023-04-02T09:51:27.142Z,93627.66
2023-04-02T09:54:03.095Z,93627.16
2023-04-02T09:56:33.865Z,93626.97
2023-04-02T09:59:07.818Z,93633.50
2023-04-02T10:01:37.423Z,93637.91
2023-04-02T10:04:06.204Z,93638.00
2023-04-02T10:06:34.160Z,93638.34
2023-04-02T10:09:21.695Z,93647.88
2023-04-02T10:11:49.026Z,93638.63
2023-04-02T10:14:22.305Z,93643.31
2023-04-02T10:16:52.666Z,93646.38
2023-04-02T10:19:28.078Z,93646.22
2023-04-02T10:21:55.924Z,93641.22
2023-04-02T10:24:22.985Z,93641.22
2023-04-02T10:27:04.454Z,93635.59
2023-04-02T10:30:02.284Z,93637.63
2023-04-02T10:32:42.642Z,93650.00
2023-04-02T10:35:09.353Z,93632.13
2023-04-02T10:37:48.347Z,93642.91
2023-04-02T10:40:37.076Z,93647.94
2023-04-02T10:43:34.556Z,93651.53
2023-04-02T10:46:10.972Z,93646.72
2023-04-02T10:48:54.683Z,93657.56
2023-04-02T10:51:38.352Z,93657.81
2023-04-02T10:54:14.157Z,93658.00
2023-04-02T10:56:50.653Z,93658.03
2023-04-02T10:59:28.110Z,93664.56
2023-04-02T11:01:57.808Z,93660.28
2023-04-02T11:04:27.690Z,93663.56
2023-04-02T11:07:11.125Z,93664.13
2023-04-02T11:09:43.177Z,93652.16
2023-04-02T11:12:21.097Z,93669.84
2023-04-02T11:14:48.425Z,93656.75
2023-04-02T11:17:16.590Z,93668.59
2023-04-02T11:19:44.375Z,93656.63
2023-04-02T11:22:20.626Z,93643.13
2023-04-02T11:24:49.851Z,93658.09
2023-04-02T11:27:34.617Z,93653.84
2023-04-02T11:30:23.200Z,93663.97
2023-04-02T11:32:50.370Z,93665.53
2023-04-02T11:35:32.347Z,93671.59
2023-04-02T11:38:04.416Z,93665.84
2023-04-02T11:40:56.332Z,93679.84
2023-04-02T11:43:35.662Z,93680.13
2023-04-02T11:46:20.796Z,93676.84
2023-04-02T11:48:47.793Z,93684.97
2023-04-02T11:51:21.243Z,93683.84
2023-04-02T11:53:53.105Z,93688.03
2023-04-02T11:56:37.189Z,93686.09
2023-04-02T11:59:24.513Z,93683.63
2023-04-02T12:02:08.266Z,93690.50
2023-04-02T12:04:38.056Z,93692.53
2023-04-02T12:07:11.045Z,93682.50
2023-04-02T12:09:43.917Z,93693.56
2023-04-02T12:12:39.413Z,93692.13
2023-04-02T12:15:24.889Z,93689.63
2023-04-02T12:17:51.704Z,93696.38
2023-04-02T12:20:24.315Z,93683.50
2023-04-02T12:22:53.625Z,93682.25
2023-04-02T12:25:31.521Z,93680.22
2023-04-02T12:28:07.756Z,93678.59
2023-04-02T12:30:34.725Z,93686.66
2023-04-02T12:33:19.902Z,93681.81
2023-04-02T12:35:47.773Z,93680.94
2023-04-02T12:38:25.100Z,93678.25
2023-04-02T12:40:56.228Z,93688.81
2023-04-02T12:43:30.954Z,93689.59
2023-04-02T12:46:08.586Z,93687.28
2023-04-02T12:48:36.456Z,93688.38
2023-04-02T12:51:03.947Z,93687.53
2023-04-02T12:53:35.930Z,93702.59
2023-04-02T12:56:03.453Z,93695.31
2023-04-02T12:58:36.944Z,93705.16
2023-04-02T13:01:31.686Z,93697.25
2023-04-02T13:04:12.461Z,93710.50
2023-04-02T13:06:40.386Z,93691.59
2023-04-02T13:09:29.247Z,93697.50
2023-04-02T13:11:56.128Z,93708.50
2023-04-02T13:14:24.643Z,93704.84
2023-04-02T13:16:51.560Z,93709.69
2023-04-02T13:19:18.326Z,93698.75
2023-04-02T13:21:46.096Z,93704.03
2023-04-02T13:24:20.701Z,93705.41
2023-04-02T13:26:49.850Z,93698.63
2023-04-02T13:29:29.559Z,93698.50
2023-04-02T13:32:01.412Z,93694.34
2023-04-02T13:34:28.988Z,93704.28
2023-04-02T13:36:57.301Z,93710.59
2023-04-02T13:39:24.764Z,93715.56
2023-04-02T13:41:53.232Z,93707.63
2023-04-02T13:44:22.091Z,93712.72
2023-04-02T13:46:48.930Z,93708.78
2023-04-02T13:49:15.818Z,93705.41
2023-04-02T13:51:58.955Z,93714.00
2023-04-02T13:54:37.445Z,93711.03
2023-04-02T13:57:04.202Z,93711.97
2023-04-02T13:59:31.158Z,93710.72
2023-04-02T14:02:01.988Z,93704.06
2023-04-02T14:04:31.803Z,93708.91
2023-04-02T14:07:10.464Z,93722.00
2023-04-02T14:10:01.965Z,93709.47
2023-04-02T14:12:46.293Z,93719.41
2023-04-02T14:15:38.479Z,93724.38
2023-04-02T14:18:36.753Z,93721.78
2023-04-02T14:21:29.338Z,93727.06
2023-04-02T14:24:29.399Z,93734.75
2023-04-02T14:27:08.406Z,93744.38
2023-04-02T14:30:04.883Z,93733.16
2023-04-02T14:32:53.125Z,93738.34
2023-04-02T14:35:29.573Z,93743.19
2023-04-02T14:38:27.420Z,93740.91
2023-04-02T14:41:05.722Z,93744.88
2023-04-02T14:43:54.982Z,93749.84
2023-04-02T14:46:26.042Z,93744.09
2023-04-02T14:49:11.600Z,93753.97
2023-04-02T14:52:04.534Z,93752.28
2023-04-02T14:54:52.281Z,93755.69
2023-04-02T14:57:21.639Z,93758.34
2023-04-02T15:00:01.530Z,93765.44
2023-04-02T15:02:42.808Z,93764.44
2023-04-02T15:05:19.205Z,93749.00
2023-04-02T15:07:52.614Z,93770.38
2023-04-02T15:10:25.499Z,93772.25
2023-04-02T15:12:54.034Z,93777.06
2023-04-02T15:15:49.023Z,93782.91
2023-04-02T15:18:18.034Z,93780.06
2023-04-02T15:20:50.446Z,93778.78
2023-04-02T15:23:31.849Z,93785.03
2023-04-02T15:26:12.002Z,93773.56
2023-04-02T15:28:50.805Z,93782.03
2023-04-02T15:31:19.609Z,93779.75
2023-04-02T15:34:11.537Z,93778.44
2023-04-02T15:36:47.376Z,93787.16
2023-04-02T15:39:18.082Z,93786.94
2023-04-02T15:42:11.093Z,93792.88
2023-04-02T15:44:44.858Z,93781.97
2023-04-02T15:47:59.194Z,93798.09
2023-04-02T15:51:04.843Z,93796.63
2023-04-02T15:53:44.823Z,93792.31
2023-04-02T15:56:25.918Z,93796.84
2023-04-02T15:59:17.974Z,93797.56
2023-04-02T16:02:18.078Z,93806.56
2023-04-02T16:04:50.584Z,93802.44
2023-04-02T16:07:35.740Z,93806.69
2023-04-02T16:10:40.154Z,93813.06
2023-04-02T16:13:29.318Z,93819.19
2023-04-02T16:16:04.011Z,93819.75
2023-04-02T16:18:38.830Z,93817.72
2023-04-02T16:21:06.830Z,93819.47
2023-04-02T16:23:38.651Z,93823.69
2023-04-02T16:26:29.852Z,93822.00
2023-04-02T16:29:13.138Z,93838.91
2023-04-02T16:32:01.270Z,93844.09
2023-04-02T16:34:34.562Z,93834.75
2023-04-02T16:37:26.468Z,93837.94
2023-04-02T16:40:11.326Z,93846.84
2023-04-02T16:43:00.672Z,93845.22
2023-04-02T16:45:36.560Z,93852.31
2023-04-02T16:48:23.658Z,93849.84
2023-04-02T16:50:59.360Z,93858.09
2023-04-02T16:54:01.977Z,93857.63
2023-04-02T16:56:33.860Z,93865.16
2023-04-02T16:59:38.081Z,93857.28
2023-04-02T17:02:37.041Z,93864.00
2023-04-02T17:05:24.382Z,93861.63
2023-04-02T17:08:01.981Z,93866.97
2023-04-02T17:10:38.303Z,93866.63
2023-04-02T17:13:27.137Z,93864.81
2023-04-02T17:16:06.073Z,93870.63
2023-04-02T17:18:33.816Z,93879.44
2023-04-02T17:21:06.536Z,93879.44
2023-04-02T17:23:55.291Z,93881.03
2023-04-02T17:26:24.855Z,93881.72
2023-04-02T17:28:52.955Z,93887.09
2023-04-02T17:31:23.399Z,93893.25
2023-04-02T17:33:50.769Z,93893.66
2023-04-02T17:36:17.448Z,93896.66
2023-04-02T17:39:03.460Z,93897.50
2023-04-02T17:41:32.839Z,93906.25
2023-04-02T17:44:10.724Z,93901.28
2023-04-02T17:46:55.071Z,93901.72
2023-04-02T17:49:47.262Z,93910.28
2023-04-02T17:52:36.189Z,93914.25
2023-04-02T17:55:06.844Z,93920.03
2023-04-02T17:57:52.390Z,93927.78
2023-04-02T18:00:50.555Z,93925.34
2023-04-02T18:03:31.745Z,93927.16
2023-04-02T18:06:14.771Z,93933.53
2023-04-02T18:08:53.608Z,93929.56
2023-04-02T18:11:38.985Z,93932.09
2023-04-02T18:14:34.520Z,93933.72
2023-04-02T18:17:10.477Z,93934.53
2023-04-02T18:19:49.926Z,93949.06
2023-04-02T18:22:38.476Z,93944.69
2023-04-02T18:25:17.853Z,93952.25
2023-04-02T18:28:05.860Z,93963.19
2023-04-02T18:30:35.680Z,93960.81
2023-04-02T18:33:19.888Z,93968.94
2023-04-02T18:36:16.063Z,93978.06
2023-04-02T18:39:03.882Z,93978.28
2023-04-02T18:41:35.097Z,93980.88
2023-04-02T18:44:31.579Z,93996.53
2023-04-02T18:47:06.618Z,93993.19
2023-04-02T18:49:43.638Z,94001.31
2023-04-02T18:52:15.780Z,94000.91
2023-04-02T18:54:54.009Z,94013.03
2023-04-02T18:57:30.660Z,94006.44
2023-04-02T19:00:16.160Z,94017.72
2023-04-02T19:02:49.580Z,94022.69
2023-04-02T19:05:28.095Z,94013.59
2023-04-02T19:08:18.730Z,94012.00
2023-04-02T19:10:48.504Z,94026.88
2023-04-02T19:13:19.605Z,94031.03
2023-04-02T19:16:04.963Z,94038.59
2023-04-02T19:19:09.345Z,94042.31
2023-04-02T19:21:51.692Z,94041.31
2023-04-02T19:24:49.146Z,94052.41
2023-04-02T19:27:19.865Z,94055.81
2023-04-02T19:29:57.904Z,94055.91
2023-04-02T19:32:47.550Z,94056.59
2023-04-02T19:35:22.068Z,94056.59
2023-04-02T19:38:13.287Z,94060.94
2023-04-02T19:40:42.054Z,94069.47
2023-04-02T19:43:10.893Z,94056.72
2023-04-02T19:45:42.262Z,94078.38
2023-04-02T19:48:17.512Z,94076.16
2023-04-02T19:50:45.240Z,94087.72
2023-04-02T19:53:12.327Z,94082.25
2023-04-02T19:55:40.288Z,94081.88
2023-04-02T19:58:18.900Z,94095.19
2023-04-02T20:00:46.294Z,94091.59
2023-04-02T20:03:13.131Z,94094.78
2023-04-02T20:05:39.908Z,94094.34
2023-04-02T20:08:06.678Z,94095.34
2023-04-02T20:10:33.458Z,94102.09
2023-04-02T20:13:00.175Z,94103.88
2023-04-02T20:15:27.970Z,94101.44
2023-04-02T20:17:54.720Z,94109.78
2023-04-02T20:20:21.453Z,94086.22
2023-04-02T20:22:48.645Z,94116.69
2023-04-02T20:25:16.220Z,94123.88
2023-04-02T20:27:43.124Z,94089.41
2023-04-02T20:30:10.032Z,94127.44
2023-04-02T20:32:38.116Z,94115.25
2023-04-02T20:35:06.110Z,94140.06
2023-04-02T20:37:33.102Z,94150.75
2023-04-02T20:40:00.081Z,94139.97
2023-04-02T20:42:26.950Z,94139.44
2023-04-02T20:44:53.792Z,94151.44
2023-04-02T20:47:20.785Z,94154.31
2023-04-02T20:49:47.436Z,94167.19
2023-04-02T20:52:14.153Z,94164.22
2023-04-02T20:54:40.879Z,94172.25
2023-04-02T20:57:07.828Z,94179.97
2023-04-02T20:59:34.644Z,94179.00
2023-04-02T21:02:01.389Z,94184.13
2023-04-02T21:04:28.653Z,94186.16
2023-04-02T21:06:57.120Z,94187.25
2023-04-02T21:09:24.207Z,94186.22
2023-04-02T21:11:50.892Z,94188.13
2023-04-02T21:14:18.149Z,94192.72
2023-04-02T21:16:45.021Z,94192.00
2023-04-02T21:19:11.779Z,94205.22
2023-04-02T21:21:39.441Z,94204.97
2023-04-02T21:24:07.899Z,94206.81
2023-04-02T21:26:37.145Z,94203.25
2023-04-02T21:29:04.270Z,94202.63
2023-04-02T21:31:37.584Z,94205.56
2023-04-02T21:34:05.321Z,94213.78
2023-04-02T21:36:38.155Z,94214.38
2023-04-02T21:39:10.772Z,94209.63
2023-04-02T21:41:39.308Z,94211.19
2023-04-02T21:44:08.445Z,94217.53
2023-04-02T21:46:38.555Z,94215.75
2023-04-02T21:49:08.130Z,94226.22
2023-04-02T21:51:36.447Z,94226.94
2023-04-02T21:54:03.501Z,94218.53
2023-04-02T21:56:32.255Z,94224.47
2023-04-02T21:59:01.838Z,94224.91
2023-04-02T22:01:31.681Z,94229.56
2023-04-02T22:04:00.480Z,94231.84
2023-04-02T22:06:29.370Z,94225.47
2023-04-02T22:08:58.834Z,94235.69
2023-04-02T22:11:28.661Z,94230.38
2023-04-02T22:13:55.628Z,94235.59
2023-04-02T22:16:24.866Z,94238.34
2023-04-02T22:18:53.515Z,94229.75
2023-04-02T22:21:20.571Z,94240.13
2023-04-02T22:23:47.758Z,94243.03
2023-04-02T22:26:15.985Z,94249.94
2023-04-02T22:28:42.839Z,94242.41
2023-04-02T22:31:15.000Z,94241.97
2023-04-02T22:33:42.265Z,94257.50
2023-04-02T22:36:09.357Z,94264.13
2023-04-02T22:38:36.509Z,94259.44
2023-04-02T22:41:09.334Z,94259.72
2023-04-02T22:43:36.706Z,94271.66
2023-04-02T22:46:07.959Z,94263.72
2023-04-02T22:48:36.075Z,94271.84
2023-04-02T22:51:03.262Z,94266.53
2023-04-02T22:53:30.029Z,94270.00
2023-04-02T22:56:05.564Z,94268.94
2023-04-02T22:58:32.415Z,94272.47
2023-04-02T23:01:23.257Z,94259.28
2023-04-02T23:03:49.834Z,94271.31
2023-04-02T23:06:18.324Z,94267.59
2023-04-02T23:08:45.791Z,94262.63
2023-04-02T23:11:22.328Z,94257.28
2023-04-02T23:13:50.923Z,94268.75
2023-04-02T23:16:18.147Z,94268.41
2023-04-02T23:18:48.085Z,94269.88
2023-04-02T23:21:15.761Z,94270.41
2023-04-02T23:23:42.517Z,94274.22
2023-04-02T23:26:18.223Z,94275.94
2023-04-02T23:28:45.249Z,94274.06
2023-04-02T23:31:17.008Z,94271.44
2023-04-02T23:33:44.376Z,94260.53
2023-04-02T23:36:15.319Z,94264.34
2023-04-02T23:38:42.047Z,94265.50
2023-04-02T23:41:15.050Z,94267.88
2023-04-02T23:43:42.076Z,94259.53
2023-04-02T23:46:08.984Z,94273.53
2023-04-02T23:48:35.866Z,94267.44
2023-04-02T23:51:02.737Z,94270.78
2023-04-02T23:53:29.425Z,94273.38
2023-04-02T23:55:56.291Z,94268.13
2023-04-02T23:58:23.103Z,94256.31
